createdAt,value
2019-01-31T00:00:30.412Z,16.37
2019-01-31T00:03:16.209Z,16.37
2019-01-31T00:06:00.211Z,16.20
2019-01-31T00:09:00.330Z,15.33
2019-01-31T00:11:46.649Z,16.97
2019-01-31T00:14:41.624Z,16.57
2019-01-31T00:18:03.100Z,15.37
2019-01-31T00:20:58.679Z,16.60
2019-01-31T00:23:56.802Z,15.27
2019-01-31T00:26:45.488Z,15.40
2019-01-31T00:29:26.773Z,15.80
2019-01-31T00:32:35.640Z,16.37
2019-01-31T00:35:51.981Z,15.53
2019-01-31T00:38:56.587Z,15.20
2019-01-31T00:41:37.608Z,15.20
2019-01-31T00:44:44.996Z,15.50
2019-01-31T00:47:58.360Z,16.60
2019-01-31T00:50:52.235Z,14.77
2019-01-31T00:53:49.372Z,15.57
2019-01-31T00:57:05.308Z,14.87
2019-01-31T01:00:03.222Z,14.13
2019-01-31T01:02:41.142Z,13.87
2019-01-31T01:05:32.164Z,14.73
2019-01-31T01:08:25.518Z,14.00
2019-01-31T01:11:16.082Z,14.93
2019-01-31T01:14:15.041Z,14.40
2019-01-31T01:17:12.161Z,15.13
2019-01-31T01:20:03.664Z,14.60
2019-01-31T01:23:13.316Z,14.90
2019-01-31T01:26:07.344Z,15.57
2019-01-31T01:29:36.024Z,15.00
2019-01-31T01:32:55.228Z,14.57
2019-01-31T01:35:57.316Z,15.47
2019-01-31T01:38:47.738Z,15.87
2019-01-31T01:41:41.120Z,16.37
2019-01-31T01:44:28.433Z,16.77
2019-01-31T01:47:19.880Z,16.77
2019-01-31T01:50:06.393Z,16.00
2019-01-31T01:53:17.748Z,15.90
2019-01-31T01:56:30.180Z,15.87
2019-01-31T01:59:41.960Z,16.00
2019-01-31T02:02:46.096Z,17.07
2019-01-31T02:05:51.356Z,16.47
2019-01-31T02:08:51.786Z,17.43
2019-01-31T02:11:58.776Z,17.47
2019-01-31T02:14:57.197Z,15.83
2019-01-31T02:18:03.185Z,16.50
2019-01-31T02:21:22.829Z,16.87
2019-01-31T02:24:37.336Z,17.27
2019-01-31T02:27:28.988Z,16.30
2019-01-31T02:30:07.618Z,17.23
2019-01-31T02:33:06.378Z,16.90
2019-01-31T02:36:10.789Z,17.63
2019-01-31T02:39:15.088Z,18.77
2019-01-31T02:42:22.108Z,18.77
2019-01-31T02:45:13.013Z,16.83
2019-01-31T02:48:28.116Z,18.47
2019-01-31T02:51:12.386Z,18.10
2019-01-31T02:54:07.519Z,17.93
2019-01-31T02:57:00.872Z,18.57
2019-01-31T02:59:58.232Z,17.83
2019-01-31T03:02:38.904Z,17.60
2019-01-31T03:05:25.989Z,18.93
2019-01-31T03:08:30.286Z,19.33
2019-01-31T03:11:10.372Z,18.43
2019-01-31T03:14:11.171Z,19.37
2019-01-31T03:17:39.996Z,16.73
2019-01-31T03:20:36.793Z,18.13
2019-01-31T03:23:45.606Z,16.67
2019-01-31T03:26:34.780Z,18.60
2019-01-31T03:29:30.685Z,18.30
2019-01-31T03:32:41.063Z,18.90
2019-01-31T03:35:27.574Z,18.53
2019-01-31T03:38:12.164Z,19.10
2019-01-31T03:41:02.525Z,18.50
2019-01-31T03:43:59.861Z,19.77
2019-01-31T03:47:02.508Z,19.70
2019-01-31T03:50:08.970Z,18.20
2019-01-31T03:53:10.473Z,19.53
2019-01-31T03:56:04.924Z,18.27
2019-01-31T03:59:13.508Z,19.90
2019-01-31T04:02:10.942Z,19.73
2019-01-31T04:04:44.968Z,20.57
2019-01-31T04:07:14.216Z,20.67
2019-01-31T04:09:43.455Z,21.00
2019-01-31T04:12:12.653Z,21.60
2019-01-31T04:14:41.983Z,22.80
2019-01-31T04:17:11.280Z,21.20
2019-01-31T04:19:40.523Z,22.73
2019-01-31T04:22:09.713Z,22.13
2019-01-31T04:24:38.984Z,22.70
2019-01-31T04:27:08.165Z,21.50
2019-01-31T04:29:37.409Z,23.00
2019-01-31T04:32:06.622Z,22.80
2019-01-31T04:34:35.825Z,23.80
2019-01-31T04:37:05.130Z,22.53
2019-01-31T04:39:34.341Z,21.97
2019-01-31T04:42:03.610Z,22.23
2019-01-31T04:44:32.813Z,22.63
2019-01-31T04:47:02.037Z,22.87
2019-01-31T04:49:31.238Z,23.37
2019-01-31T04:52:00.477Z,24.80
2019-01-31T04:54:29.711Z,21.00
2019-01-31T04:56:58.977Z,22.07
2019-01-31T04:59:28.160Z,22.87
2019-01-31T05:01:57.415Z,23.57
2019-01-31T05:04:26.615Z,23.70
2019-01-31T05:06:55.861Z,22.53
2019-01-31T05:09:25.093Z,23.33
2019-01-31T05:11:54.348Z,23.80
2019-01-31T05:14:23.618Z,24.57
2019-01-31T05:16:52.868Z,25.23
2019-01-31T05:19:22.087Z,23.70
2019-01-31T05:21:51.347Z,24.77
2019-01-31T05:24:20.581Z,23.60
2019-01-31T05:26:49.811Z,24.53
2019-01-31T05:29:18.987Z,25.73
2019-01-31T05:31:48.205Z,21.97
2019-01-31T05:34:17.562Z,23.13
2019-01-31T05:36:46.742Z,23.43
2019-01-31T05:39:15.976Z,24.27
2019-01-31T05:41:45.276Z,25.23
2019-01-31T05:44:14.532Z,24.67
2019-01-31T05:46:43.736Z,23.90
2019-01-31T05:49:13.179Z,23.93
2019-01-31T05:51:42.379Z,24.07
2019-01-31T05:54:11.704Z,24.87
2019-01-31T05:56:40.932Z,25.13
2019-01-31T05:59:10.166Z,23.07
2019-01-31T06:01:39.374Z,23.63
2019-01-31T06:04:08.597Z,24.20
2019-01-31T06:06:37.892Z,23.97
2019-01-31T06:09:09.061Z,25.17
2019-01-31T06:11:38.709Z,24.27
2019-01-31T06:14:08.124Z,23.47
2019-01-31T06:16:37.324Z,23.63
2019-01-31T06:19:06.565Z,26.20
2019-01-31T06:21:35.797Z,23.73
2019-01-31T06:24:05.012Z,26.43
2019-01-31T06:26:34.233Z,25.70
2019-01-31T06:29:03.473Z,27.07
2019-01-31T06:31:32.683Z,26.10
2019-01-31T06:34:01.900Z,27.07
2019-01-31T06:36:31.141Z,27.33
2019-01-31T06:39:00.384Z,28.00
2019-01-31T06:41:29.605Z,28.10
2019-01-31T06:43:58.836Z,27.30
2019-01-31T06:46:28.037Z,26.47
2019-01-31T06:48:57.290Z,25.60
2019-01-31T06:51:26.496Z,26.00
2019-01-31T06:53:55.797Z,27.13
2019-01-31T06:56:25.004Z,26.87
2019-01-31T06:58:54.236Z,25.83
2019-01-31T07:01:23.456Z,25.43
2019-01-31T07:03:52.660Z,27.80
2019-01-31T07:06:21.899Z,27.43
2019-01-31T07:08:51.195Z,27.50
2019-01-31T07:11:29.637Z,27.90
2019-01-31T07:13:51.295Z,27.67
2019-01-31T07:16:20.528Z,27.60
2019-01-31T07:18:49.745Z,27.10
2019-01-31T07:21:18.970Z,25.73
2019-01-31T07:23:48.162Z,25.57
2019-01-31T07:26:17.393Z,24.77
2019-01-31T07:28:46.617Z,23.20
2019-01-31T07:31:15.845Z,24.63
2019-01-31T07:33:45.045Z,24.53
2019-01-31T07:36:14.296Z,23.40
2019-01-31T07:38:43.575Z,23.53
2019-01-31T07:41:12.797Z,24.23
2019-01-31T07:43:42.023Z,24.53
2019-01-31T07:46:11.248Z,22.50
2019-01-31T07:48:40.448Z,22.47
2019-01-31T07:51:09.757Z,22.50
2019-01-31T07:53:38.943Z,22.77
2019-01-31T07:56:08.281Z,22.03
2019-01-31T07:58:37.491Z,22.93
2019-01-31T08:01:06.705Z,21.93
2019-01-31T08:03:35.993Z,22.00
2019-01-31T08:06:05.197Z,22.80
2019-01-31T08:08:34.493Z,22.57
2019-01-31T08:11:03.876Z,22.87
2019-01-31T08:13:33.181Z,22.63
2019-01-31T08:16:02.412Z,21.63
2019-01-31T08:18:31.657Z,21.77
2019-01-31T08:21:00.864Z,22.30
2019-01-31T08:23:30.103Z,22.13
2019-01-31T08:25:59.316Z,22.23
2019-01-31T08:28:29.408Z,22.50
2019-01-31T08:30:58.729Z,22.87
2019-01-31T08:33:28.502Z,22.50
2019-01-31T08:35:57.984Z,22.50
2019-01-31T08:38:27.198Z,21.83
2019-01-31T08:40:56.420Z,21.63
2019-01-31T08:43:25.676Z,21.60
2019-01-31T08:45:54.968Z,20.97
2019-01-31T08:48:24.276Z,20.47
2019-01-31T08:50:53.504Z,20.43
2019-01-31T08:53:22.719Z,20.97
2019-01-31T08:55:51.959Z,20.63
2019-01-31T08:58:21.232Z,19.07
2019-01-31T09:00:50.464Z,19.57
2019-01-31T09:03:19.828Z,19.27
2019-01-31T09:05:48.969Z,19.83
2019-01-31T09:08:18.180Z,21.00
2019-01-31T09:10:47.432Z,20.97
2019-01-31T09:13:16.661Z,19.47
2019-01-31T09:15:45.908Z,19.50
2019-01-31T09:18:15.121Z,19.87
2019-01-31T09:21:21.133Z,18.17
2019-01-31T09:24:23.520Z,19.37
2019-01-31T09:27:23.920Z,17.93
2019-01-31T09:30:08.643Z,17.83
2019-01-31T09:33:10.624Z,18.50
2019-01-31T09:36:05.389Z,19.30
2019-01-31T09:39:14.181Z,18.90
2019-01-31T09:42:04.081Z,16.33
2019-01-31T09:45:35.783Z,18.10
2019-01-31T09:48:49.378Z,17.33
2019-01-31T09:52:02.598Z,16.73
2019-01-31T09:55:08.101Z,17.63
2019-01-31T09:58:10.456Z,17.30
2019-01-31T10:01:14.239Z,17.53
2019-01-31T10:04:31.449Z,18.03
2019-01-31T10:07:41.172Z,18.33
2019-01-31T10:10:31.630Z,18.07
2019-01-31T10:13:32.169Z,17.00
2019-01-31T10:16:20.597Z,18.60
2019-01-31T10:19:35.008Z,18.47
2019-01-31T10:22:38.040Z,18.97
2019-01-31T10:25:42.740Z,19.57
2019-01-31T10:28:51.140Z,20.73
2019-01-31T10:31:47.904Z,18.43
2019-01-31T10:35:28.688Z,18.53
2019-01-31T10:38:44.141Z,18.43
2019-01-31T10:41:54.688Z,17.43
2019-01-31T10:45:06.115Z,19.80
2019-01-31T10:47:58.752Z,18.27
2019-01-31T10:51:09.272Z,19.13
2019-01-31T10:54:22.288Z,19.20
2019-01-31T10:57:19.353Z,18.97
2019-01-31T11:00:14.560Z,17.07
2019-01-31T11:03:27.633Z,17.73
2019-01-31T11:06:20.405Z,14.77
2019-01-31T11:09:15.080Z,15.40
2019-01-31T11:12:16.188Z,14.70
2019-01-31T11:15:26.704Z,13.10
2019-01-31T11:18:30.961Z,13.97
2019-01-31T11:21:27.156Z,14.50
2019-01-31T11:24:37.332Z,13.77
2019-01-31T11:27:28.121Z,11.83
2019-01-31T11:30:20.847Z,11.97
2019-01-31T11:33:26.237Z,11.83
2019-01-31T11:36:42.523Z,11.00
2019-01-31T11:39:55.313Z,11.70
2019-01-31T11:43:11.913Z,11.63
2019-01-31T11:46:35.107Z,9.57
2019-01-31T11:49:45.476Z,10.60
2019-01-31T11:52:59.033Z,9.60
2019-01-31T11:55:53.593Z,9.17
2019-01-31T11:58:57.697Z,8.80
2019-01-31T12:01:26.893Z,10.07
2019-01-31T12:04:05.827Z,9.70
2019-01-31T12:06:35.148Z,10.20
2019-01-31T12:09:07.137Z,10.37
2019-01-31T12:11:36.316Z,10.50
2019-01-31T12:14:05.647Z,9.87
2019-01-31T12:16:34.905Z,10.30
2019-01-31T12:19:04.145Z,10.87
2019-01-31T12:21:33.416Z,11.63
2019-01-31T12:24:02.646Z,12.50
2019-01-31T12:26:31.948Z,12.20
2019-01-31T12:29:01.202Z,11.73
2019-01-31T12:31:30.504Z,11.77
2019-01-31T12:33:59.817Z,13.07
2019-01-31T12:36:29.005Z,11.70
2019-01-31T12:38:58.309Z,12.47
2019-01-31T12:41:27.520Z,12.13
2019-01-31T12:43:56.754Z,13.37
2019-01-31T12:46:25.949Z,13.37
2019-01-31T12:48:55.190Z,13.20
2019-01-31T12:51:24.401Z,12.47
2019-01-31T12:53:53.662Z,11.53
2019-01-31T12:56:22.888Z,10.00
2019-01-31T12:58:52.153Z,10.73
2019-01-31T13:01:21.349Z,10.27
2019-01-31T13:03:50.580Z,10.40
2019-01-31T13:06:19.804Z,10.27
2019-01-31T13:08:49.230Z,9.63
2019-01-31T13:11:18.505Z,10.53
2019-01-31T13:13:47.729Z,9.63
2019-01-31T13:16:16.927Z,9.73
2019-01-31T13:18:46.529Z,10.03
2019-01-31T13:21:15.734Z,9.97
2019-01-31T13:23:45.001Z,9.67
2019-01-31T13:26:14.363Z,9.43
2019-01-31T13:28:43.739Z,9.40
2019-01-31T13:31:12.980Z,9.27
2019-01-31T13:33:42.468Z,8.53
2019-01-31T13:36:14.446Z,7.80
2019-01-31T13:38:43.688Z,8.77
2019-01-31T13:41:12.937Z,9.37
2019-01-31T13:43:42.138Z,9.03
2019-01-31T13:46:11.369Z,9.40
2019-01-31T13:48:40.647Z,8.87
2019-01-31T13:51:10.430Z,8.93
2019-01-31T13:53:39.628Z,8.80
2019-01-31T13:56:09.903Z,7.43
2019-01-31T13:58:39.202Z,8.63
2019-01-31T14:01:08.860Z,8.40
2019-01-31T14:03:38.058Z,7.73
2019-01-31T14:06:07.320Z,8.23
2019-01-31T14:08:36.538Z,8.63
2019-01-31T14:11:05.750Z,9.03
2019-01-31T14:13:35.029Z,8.30
2019-01-31T14:16:04.264Z,9.33
2019-01-31T14:18:33.651Z,9.57
2019-01-31T14:21:02.861Z,8.90
2019-01-31T14:23:32.152Z,8.23
2019-01-31T14:26:01.389Z,8.53
2019-01-31T14:28:30.672Z,9.80
2019-01-31T14:30:59.892Z,9.00
2019-01-31T14:33:29.269Z,9.10
2019-01-31T14:36:00.286Z,8.73
2019-01-31T14:38:29.501Z,8.37
2019-01-31T14:40:58.736Z,7.63
2019-01-31T14:43:27.914Z,8.63
2019-01-31T14:45:57.142Z,8.73
2019-01-31T14:48:26.361Z,7.97
2019-01-31T14:50:55.599Z,8.23
2019-01-31T14:53:24.805Z,8.27
2019-01-31T14:55:55.529Z,8.40
2019-01-31T14:58:24.940Z,8.43
2019-01-31T15:00:54.186Z,7.40
2019-01-31T15:03:23.413Z,7.87
2019-01-31T15:05:52.632Z,7.90
2019-01-31T15:08:21.853Z,8.37
2019-01-31T15:10:51.093Z,7.90
2019-01-31T15:13:20.292Z,7.50
2019-01-31T15:15:49.589Z,9.33
2019-01-31T15:18:18.797Z,7.93
2019-01-31T15:20:48.029Z,8.73
2019-01-31T15:23:17.241Z,8.83
2019-01-31T15:25:46.604Z,7.37
2019-01-31T15:28:15.807Z,7.57
2019-01-31T15:30:46.427Z,7.33
2019-01-31T15:33:15.688Z,8.17
2019-01-31T15:35:45.070Z,6.90
2019-01-31T15:38:14.253Z,8.07
2019-01-31T15:40:46.428Z,7.73
2019-01-31T15:43:15.797Z,7.67
2019-01-31T15:45:45.164Z,7.90
2019-01-31T15:48:14.699Z,7.83
2019-01-31T15:50:44.065Z,7.17
2019-01-31T15:53:13.525Z,7.37
2019-01-31T15:55:43.742Z,8.10
2019-01-31T15:58:13.130Z,7.77
2019-01-31T16:00:54.438Z,7.83
2019-01-31T16:03:24.973Z,7.60
2019-01-31T16:05:55.708Z,7.37
2019-01-31T16:08:25.397Z,6.87
2019-01-31T16:10:54.709Z,6.93
2019-01-31T16:13:24.027Z,7.40
2019-01-31T16:15:53.424Z,7.30
2019-01-31T16:18:22.961Z,6.90
2019-01-31T16:20:52.201Z,6.67
2019-01-31T16:23:21.412Z,6.40
2019-01-31T16:25:50.704Z,6.90
2019-01-31T16:28:19.898Z,6.50
2019-01-31T16:30:49.145Z,7.03
2019-01-31T16:33:18.404Z,7.67
2019-01-31T16:39:16.430Z,7.17
2019-01-31T16:41:45.997Z,7.47
2019-01-31T16:44:15.777Z,6.67
2019-01-31T16:46:45.323Z,7.30
2019-01-31T16:49:14.638Z,7.47
2019-01-31T16:51:45.526Z,7.70
2019-01-31T16:54:14.851Z,6.07
2019-01-31T16:56:44.109Z,6.07
2019-01-31T16:59:13.384Z,5.83
2019-01-31T17:01:42.688Z,6.00
2019-01-31T17:04:11.917Z,5.10
2019-01-31T17:06:41.149Z,5.43
2019-01-31T17:09:10.519Z,6.13
2019-01-31T17:11:39.732Z,6.00
2019-01-31T17:14:09.044Z,5.53
2019-01-31T17:16:38.271Z,5.47
2019-01-31T17:19:07.490Z,5.40
2019-01-31T17:21:36.740Z,6.07
2019-01-31T17:24:05.959Z,5.77
2019-01-31T17:26:35.236Z,6.20
2019-01-31T17:29:04.562Z,7.40
2019-01-31T17:31:33.792Z,7.53
2019-01-31T17:34:03.023Z,6.83
2019-01-31T17:36:32.229Z,7.07
2019-01-31T17:39:01.432Z,8.70
2019-01-31T17:41:30.669Z,7.33
2019-01-31T17:43:59.881Z,6.43
2019-01-31T17:46:29.212Z,8.10
2019-01-31T17:48:58.408Z,8.03
2019-01-31T17:51:27.695Z,7.80
2019-01-31T17:53:56.913Z,7.37
2019-01-31T17:56:26.162Z,8.37
2019-01-31T17:58:55.380Z,8.17
2019-01-31T18:01:24.690Z,8.13
2019-01-31T18:03:53.909Z,8.13
2019-01-31T18:06:23.135Z,8.37
2019-01-31T18:08:52.351Z,7.57
2019-01-31T18:11:21.577Z,7.77
2019-01-31T18:13:52.638Z,8.27
2019-01-31T18:16:21.704Z,8.00
2019-01-31T18:18:50.940Z,7.17
2019-01-31T18:21:20.180Z,7.67
2019-01-31T18:23:49.353Z,7.77
2019-01-31T18:26:18.692Z,7.03
2019-01-31T18:28:48.004Z,7.57
2019-01-31T18:31:17.242Z,7.67
2019-01-31T18:33:46.521Z,8.80
2019-01-31T18:36:15.788Z,7.60
2019-01-31T18:38:44.989Z,8.30
2019-01-31T18:41:14.209Z,8.20
2019-01-31T18:43:43.444Z,7.73
2019-01-31T18:46:12.811Z,7.27
2019-01-31T18:48:42.012Z,7.73
2019-01-31T18:51:11.304Z,8.30
2019-01-31T18:53:40.504Z,7.47
2019-01-31T18:56:09.820Z,8.00
2019-01-31T18:58:39.016Z,8.63
2019-01-31T19:01:08.409Z,8.73
2019-01-31T19:03:37.620Z,7.50
2019-01-31T19:06:07.256Z,8.30
2019-01-31T19:08:37.402Z,7.80
2019-01-31T19:11:06.563Z,8.77
2019-01-31T19:13:35.885Z,8.40
2019-01-31T19:16:05.866Z,7.87
2019-01-31T19:18:35.155Z,9.33
2019-01-31T19:21:04.507Z,8.70
2019-01-31T19:23:33.784Z,8.63
2019-01-31T19:26:03.059Z,9.20
2019-01-31T19:28:32.284Z,7.53
2019-01-31T19:31:01.525Z,9.10
2019-01-31T19:33:30.734Z,8.13
2019-01-31T19:36:00.207Z,8.30
2019-01-31T19:38:29.439Z,7.77
2019-01-31T19:40:58.916Z,8.60
2019-01-31T19:43:28.227Z,9.03
2019-01-31T19:45:57.465Z,9.23
2019-01-31T19:48:26.677Z,7.30
2019-01-31T19:50:56.096Z,8.53
2019-01-31T19:53:25.360Z,8.03
2019-01-31T19:55:54.640Z,7.93
2019-01-31T19:58:24.175Z,8.30
2019-01-31T20:00:53.399Z,8.37
2019-01-31T20:03:22.626Z,8.27
2019-01-31T20:05:51.882Z,8.77
2019-01-31T20:08:21.193Z,8.70
2019-01-31T20:10:50.530Z,9.27
2019-01-31T20:13:19.828Z,8.83
2019-01-31T20:15:49.117Z,8.97
2019-01-31T20:18:18.357Z,8.87
2019-01-31T20:20:47.653Z,8.00
2019-01-31T20:23:16.889Z,9.23
2019-01-31T20:25:46.287Z,9.57
2019-01-31T20:28:15.664Z,8.97
2019-01-31T20:30:44.960Z,9.83
2019-01-31T20:33:14.327Z,10.07
2019-01-31T20:35:43.755Z,10.20
2019-01-31T20:38:13.000Z,9.10
2019-01-31T20:40:43.435Z,10.27
2019-01-31T20:43:12.809Z,10.83
2019-01-31T20:45:42.130Z,11.77
2019-01-31T20:48:11.464Z,11.33
2019-01-31T20:50:42.060Z,12.47
2019-01-31T20:53:11.397Z,12.43
2019-01-31T20:55:40.753Z,10.43
2019-01-31T20:58:10.296Z,9.93
2019-01-31T21:00:41.910Z,10.87
2019-01-31T21:03:11.715Z,11.50
2019-01-31T21:05:41.900Z,11.47
2019-01-31T21:08:12.621Z,10.70
2019-01-31T21:10:41.949Z,11.97
2019-01-31T21:13:11.432Z,10.93
2019-01-31T21:15:40.762Z,11.60
2019-01-31T21:18:10.274Z,10.47
2019-01-31T21:20:39.636Z,11.80
2019-01-31T21:23:09.670Z,11.20
2019-01-31T21:25:38.912Z,11.70
2019-01-31T21:28:08.429Z,10.97
2019-01-31T21:30:41.838Z,11.20
2019-01-31T21:33:11.253Z,10.60
2019-01-31T21:35:40.493Z,11.70
2019-01-31T21:38:09.801Z,10.83
2019-01-31T21:40:39.884Z,11.00
2019-01-31T21:43:09.190Z,10.50
2019-01-31T21:45:38.713Z,10.57
2019-01-31T21:48:09.461Z,11.23
2019-01-31T21:50:38.704Z,10.27
2019-01-31T21:53:09.548Z,10.90
2019-01-31T21:55:38.904Z,11.77
2019-01-31T21:58:08.614Z,10.33
2019-01-31T22:00:38.128Z,11.10
2019-01-31T22:03:08.391Z,10.60
2019-01-31T22:05:37.724Z,10.87
2019-01-31T22:08:07.613Z,10.70
2019-01-31T22:10:36.861Z,11.70
2019-01-31T22:13:06.336Z,10.57
2019-01-31T22:15:36.307Z,12.03
2019-01-31T22:18:06.573Z,11.23
2019-01-31T22:20:35.868Z,12.63
2019-01-31T22:23:05.393Z,12.50
2019-01-31T22:25:34.602Z,11.43
2019-01-31T22:28:04.090Z,12.50
2019-01-31T22:30:35.429Z,12.03
2019-01-31T22:33:05.439Z,11.43
2019-01-31T22:35:34.798Z,12.23
2019-01-31T22:38:04.333Z,12.17
2019-01-31T22:40:33.549Z,12.33
2019-01-31T22:43:02.808Z,12.10
2019-01-31T22:45:32.047Z,11.70
2019-01-31T22:48:01.240Z,13.20
2019-01-31T22:50:30.547Z,12.00
2019-01-31T22:52:59.756Z,12.93
2019-01-31T22:55:28.993Z,12.33
2019-01-31T22:57:58.312Z,13.83
2019-01-31T23:01:11.871Z,13.70
2019-01-31T23:03:41.142Z,13.57
2019-01-31T23:06:13.000Z,12.47
2019-01-31T23:08:42.293Z,13.50
2019-01-31T23:11:11.445Z,12.90
2019-01-31T23:13:40.657Z,12.97
2019-01-31T23:16:09.991Z,14.20
2019-01-31T23:18:39.273Z,14.70
2019-01-31T23:21:08.492Z,14.07
2019-01-31T23:23:37.715Z,12.93
2019-01-31T23:26:07.133Z,14.03
2019-01-31T23:28:36.373Z,14.60
2019-01-31T23:31:05.673Z,14.07
2019-01-31T23:33:35.001Z,14.63
2019-01-31T23:36:04.940Z,14.33
2019-01-31T23:38:34.268Z,14.03
2019-01-31T23:41:03.553Z,14.60
2019-01-31T23:43:32.765Z,13.60
2019-01-31T23:46:02.016Z,15.00
2019-01-31T23:48:31.330Z,13.93
2019-01-31T23:51:00.572Z,14.30
2019-01-31T23:53:29.788Z,13.63
2019-01-31T23:55:59.043Z,14.53
2019-01-31T23:58:28.261Z,13.93
